Terminal Aerodrome Forecast
Issued by NWS

Home | Current Version | Previous Version | Text Only | Print | Product List | Glossary On
Versions: 1 2 3 4 5 6 7 8 9 10 11 12 13 14 15 16 17 18 19 20
000
FTUS46 KPQR 231132
TAFONP
TAF
KONP 231132Z 2312/2412 20011G20KT 5SM -RA SCT008 BKN015 OVC050
      TEMPO 2312/2315 2SM RA BKN008 OVC012
     FM231500 21009KT P6SM -SHRA SCT020 BKN040
     FM240600 18006KT P6SM SCT015 BKN050=

USA.gov is the U.S. government's official web portal to all federal, state and local government web resources and services.